createdAt,value
2023-02-18T00:03:06.052Z,6.25
2023-02-18T00:08:11.365Z,6.60
2023-02-18T00:13:19.311Z,5.10
2023-02-18T00:18:24.605Z,6.32
2023-02-18T00:23:30.105Z,6.60
2023-02-18T00:28:38.748Z,7.07
2023-02-18T00:33:44.802Z,6.15
2023-02-18T00:38:52.446Z,7.30
2023-02-18T00:44:00.407Z,7.18
2023-02-18T00:49:06.533Z,7.77
2023-02-18T00:54:13.415Z,7.50
2023-02-18T00:59:21.352Z,7.90
2023-02-18T01:04:26.723Z,8.13
2023-02-18T01:09:33.597Z,8.88
2023-02-18T01:14:41.433Z,8.65
2023-02-18T01:19:46.957Z,9.63
2023-02-18T01:24:52.162Z,12.73
2023-02-18T01:30:00.161Z,10.53
2023-02-18T01:35:06.102Z,11.40
2023-02-18T01:40:15.716Z,10.00
2023-02-18T01:45:54.505Z,8.07
2023-02-18T01:51:06.165Z,6.68
2023-02-18T01:56:15.205Z,5.90
2023-02-18T02:01:20.597Z,5.10
2023-02-18T02:06:29.541Z,5.20
2023-02-18T02:12:08.250Z,5.87
2023-02-18T02:17:20.557Z,5.38
2023-02-18T02:22:47.902Z,4.93
2023-02-18T02:28:23.197Z,4.85
2023-02-18T02:33:58.692Z,4.93
2023-02-18T02:39:15.562Z,4.50
2023-02-18T02:44:23.877Z,4.95
2023-02-18T02:49:39.610Z,4.67
2023-02-18T02:54:47.478Z,4.35
2023-02-18T02:59:58.189Z,5.00
2023-02-18T03:05:22.192Z,5.50
2023-02-18T03:10:42.443Z,5.20
2023-02-18T03:15:55.854Z,5.17
2023-02-18T03:21:05.159Z,5.70
2023-02-18T03:26:15.425Z,6.55
2023-02-18T03:31:23.981Z,5.90
2023-02-18T03:36:30.247Z,5.80
2023-02-18T03:41:38.526Z,4.47
2023-02-18T03:46:46.103Z,4.40
2023-02-18T03:51:51.670Z,3.55
2023-02-18T03:56:59.984Z,4.47
2023-02-18T04:02:05.582Z,3.72
2023-02-18T04:07:11.058Z,4.07
2023-02-18T04:12:18.945Z,2.78
2023-02-18T04:17:24.282Z,2.63
2023-02-18T04:22:29.634Z,3.00
2023-02-18T04:27:37.615Z,2.65
2023-02-18T04:32:42.992Z,2.50
2023-02-18T04:37:48.377Z,2.17
2023-02-18T04:42:56.224Z,2.53
2023-02-18T04:48:01.546Z,1.90
2023-02-18T04:53:06.882Z,1.77
2023-02-18T04:58:14.811Z,1.63
2023-02-18T05:03:20.552Z,1.60
2023-02-18T05:08:25.945Z,1.50
2023-02-18T05:13:33.872Z,1.10
2023-02-18T05:18:39.166Z,1.10
2023-02-18T05:23:44.498Z,1.63
2023-02-18T05:28:52.677Z,1.27
2023-02-18T05:33:57.898Z,1.58
2023-02-18T05:39:03.380Z,1.60
2023-02-18T05:44:23.623Z,1.73
2023-02-18T05:49:29.016Z,1.77
2023-02-18T05:54:35.357Z,1.47
2023-02-18T05:59:43.223Z,2.00
2023-02-18T06:04:48.490Z,2.40
2023-02-18T06:09:53.879Z,2.10
2023-02-18T06:15:01.762Z,2.00
2023-02-18T06:20:07.665Z,2.77
2023-02-18T06:25:12.951Z,2.97
2023-02-18T06:30:22.280Z,2.47
2023-02-18T06:35:28.868Z,2.67
2023-02-18T06:40:34.244Z,3.20
2023-02-18T06:45:42.382Z,2.67
2023-02-18T06:50:48.244Z,2.22
2023-02-18T06:55:53.724Z,1.90
2023-02-18T07:01:02.043Z,1.93
2023-02-18T07:06:08.533Z,2.10
2023-02-18T07:11:14.287Z,1.97
2023-02-18T07:16:22.385Z,1.80
2023-02-18T07:21:28.505Z,1.60
2023-02-18T07:26:33.998Z,1.33
2023-02-18T07:31:42.080Z,1.50
2023-02-18T07:36:47.564Z,1.30
2023-02-18T07:41:53.072Z,1.52
2023-02-18T07:47:04.825Z,1.63
2023-02-18T07:52:10.510Z,1.40
2023-02-18T07:57:15.957Z,1.50
2023-02-18T08:02:27.071Z,1.50
2023-02-18T08:07:32.577Z,1.20
2023-02-18T08:12:37.998Z,1.00
2023-02-18T08:17:46.025Z,1.00
2023-02-18T08:22:51.319Z,1.05
2023-02-18T08:27:56.682Z,0.73
2023-02-18T08:33:04.870Z,1.08
2023-02-18T08:38:10.412Z,1.10
2023-02-18T08:43:19.012Z,1.00
2023-02-18T08:48:26.960Z,1.50
2023-02-18T08:53:32.290Z,1.20
2023-02-18T08:58:38.498Z,1.13
2023-02-18T09:03:46.418Z,1.30
2023-02-18T09:08:51.974Z,1.10
2023-02-18T09:13:57.258Z,1.05
2023-02-18T09:19:05.119Z,1.63
2023-02-18T09:24:10.650Z,1.30
2023-02-18T09:29:16.298Z,1.80
2023-02-18T09:34:24.249Z,1.40
2023-02-18T09:39:32.253Z,1.50
2023-02-18T09:44:41.482Z,1.77
2023-02-18T09:49:53.414Z,1.50
2023-02-18T09:54:59.273Z,1.50
2023-02-18T10:00:08.359Z,1.57
2023-02-18T10:05:23.694Z,1.38
2023-02-18T10:10:37.629Z,1.70
2023-02-18T10:15:45.376Z,1.60
2023-02-18T10:20:54.932Z,1.80
2023-02-18T10:26:02.505Z,1.90
2023-02-18T10:31:11.816Z,1.88
2023-02-18T10:36:27.975Z,1.77
2023-02-18T10:41:40.442Z,1.83
2023-02-18T10:46:52.634Z,2.20
2023-02-18T10:52:02.053Z,1.90
2023-02-18T10:57:07.515Z,2.22
2023-02-18T11:02:20.314Z,1.73
2023-02-18T11:07:32.822Z,1.90
2023-02-18T11:12:47.355Z,2.22
2023-02-18T11:17:54.752Z,2.20
2023-02-18T11:23:19.088Z,2.40
2023-02-18T11:28:33.425Z,2.20
2023-02-18T11:33:42.734Z,2.35
2023-02-18T11:38:56.024Z,2.13
2023-02-18T11:44:02.196Z,2.10
2023-02-18T11:49:26.207Z,2.60
2023-02-18T11:54:36.172Z,2.40
2023-02-18T11:59:43.918Z,3.00
2023-02-18T12:04:55.288Z,3.15
2023-02-18T12:10:07.982Z,2.63
2023-02-18T12:15:18.850Z,2.42
2023-02-18T12:20:44.719Z,1.90
2023-02-18T12:26:00.248Z,2.17
2023-02-18T12:31:30.661Z,2.05
2023-02-18T12:36:49.223Z,2.00
2023-02-18T12:42:09.304Z,2.28
2023-02-18T12:47:32.482Z,1.77
2023-02-18T12:52:47.781Z,2.03
2023-02-18T12:58:08.692Z,2.28
2023-02-18T13:03:46.965Z,2.27
2023-02-18T13:09:01.131Z,2.20
2023-02-18T13:14:15.943Z,2.10
2023-02-18T13:19:25.091Z,2.27
2023-02-18T13:24:36.515Z,2.30
2023-02-18T13:29:50.953Z,2.13
2023-02-18T13:35:02.531Z,2.40
2023-02-18T13:40:20.404Z,1.83
2023-02-18T13:45:36.875Z,2.50
2023-02-18T13:50:48.643Z,2.95
2023-02-18T13:56:05.269Z,2.77
2023-02-18T14:01:34.429Z,2.33
2023-02-18T14:06:40.041Z,2.38
2023-02-18T14:11:51.830Z,2.40
2023-02-18T14:17:35.709Z,2.90
2023-02-18T14:22:48.847Z,3.40
2023-02-18T14:27:56.328Z,3.20
2023-02-18T14:33:04.855Z,2.75
2023-02-18T14:38:29.003Z,3.00
2023-02-18T14:43:47.255Z,3.40
2023-02-18T14:49:16.479Z,3.13
2023-02-18T14:54:23.303Z,3.20
2023-02-18T14:59:31.253Z,3.30
2023-02-18T15:04:39.503Z,3.33
2023-02-18T15:09:52.673Z,2.97
2023-02-18T15:15:02.215Z,3.20
2023-02-18T15:20:15.643Z,2.75
2023-02-18T15:25:21.531Z,2.90
2023-02-18T15:30:30.980Z,2.70
2023-02-18T15:35:44.523Z,2.90
2023-02-18T15:40:53.239Z,2.57
2023-02-18T15:46:01.813Z,2.40
2023-02-18T15:51:17.757Z,2.90
2023-02-18T15:56:32.167Z,2.83
2023-02-18T16:01:38.429Z,2.75
2023-02-18T16:06:52.366Z,2.80
2023-02-18T16:12:02.222Z,3.03
2023-02-18T16:17:17.219Z,2.90
2023-02-18T16:22:37.662Z,3.47
2023-02-18T16:27:55.328Z,3.67
2023-02-18T16:33:01.749Z,2.83
2023-02-18T16:38:10.000Z,3.67
2023-02-18T16:43:18.315Z,3.47
2023-02-18T16:48:27.231Z,3.57
2023-02-18T16:53:35.460Z,3.53
2023-02-18T16:58:40.872Z,3.75
2023-02-18T17:03:49.719Z,3.10
2023-02-18T17:08:58.101Z,3.42
2023-02-18T17:14:05.152Z,3.13
2023-02-18T17:19:10.845Z,3.33
2023-02-18T17:24:20.781Z,3.00
2023-02-18T17:29:26.288Z,3.80
2023-02-18T17:34:35.952Z,4.10
2023-02-18T17:39:43.816Z,4.80
2023-02-18T17:44:49.153Z,4.47
2023-02-18T17:49:54.548Z,4.75
2023-02-18T17:55:02.438Z,4.80
2023-02-18T18:00:09.360Z,4.40
2023-02-18T18:05:23.241Z,4.33
2023-02-18T18:10:33.749Z,4.25
2023-02-18T18:15:42.064Z,4.90
2023-02-18T18:20:49.536Z,4.43
2023-02-18T18:25:59.687Z,5.75
2023-02-18T18:31:08.531Z,5.87
2023-02-18T18:36:14.149Z,5.90
2023-02-18T18:41:25.401Z,6.22
2023-02-18T18:46:32.831Z,6.43
2023-02-18T18:51:38.556Z,8.48
2023-02-18T18:56:48.133Z,8.02
2023-02-18T19:01:54.748Z,9.43
2023-02-18T19:07:00.304Z,9.40
2023-02-18T19:12:08.722Z,8.43
2023-02-18T19:17:14.342Z,8.77
2023-02-18T19:22:19.775Z,8.52
2023-02-18T19:27:28.022Z,8.47
2023-02-18T19:32:33.731Z,7.68
2023-02-18T19:37:40.300Z,8.70
2023-02-18T19:42:48.828Z,8.43
2023-02-18T19:47:57.972Z,8.48
2023-02-18T19:53:03.400Z,6.60
2023-02-18T19:58:11.436Z,6.50
2023-02-18T20:03:30.070Z,7.13
2023-02-18T20:08:37.082Z,6.65
2023-02-18T20:13:51.478Z,7.03
2023-02-18T20:18:57.335Z,6.43
2023-02-18T20:24:02.827Z,6.20
2023-02-18T20:29:11.270Z,5.03
2023-02-18T20:34:17.076Z,5.82
2023-02-18T20:39:23.538Z,5.47
2023-02-18T20:44:31.605Z,5.20
2023-02-18T20:49:38.493Z,6.50
2023-02-18T20:54:43.878Z,6.17
2023-02-18T20:59:52.173Z,6.10
2023-02-18T21:05:00.409Z,6.15
2023-02-18T21:10:06.711Z,5.83
2023-02-18T21:15:16.065Z,5.38
2023-02-18T21:20:23.257Z,6.07
2023-02-18T21:25:29.511Z,6.20
2023-02-18T21:30:41.800Z,6.40
2023-02-18T21:35:49.122Z,7.53
2023-02-18T21:40:54.658Z,8.60
2023-02-18T21:46:12.083Z,7.00
2023-02-18T21:51:39.255Z,6.95
2023-02-18T21:56:44.605Z,5.68
2023-02-18T22:01:52.858Z,5.50
2023-02-18T22:06:58.429Z,5.40
2023-02-18T22:12:04.394Z,5.23
2023-02-18T22:17:12.399Z,4.88
2023-02-18T22:22:17.779Z,5.35
2023-02-18T22:27:24.373Z,5.20
2023-02-18T22:32:32.409Z,5.30
2023-02-18T22:37:37.890Z,5.43
2023-02-18T22:42:43.158Z,5.55
2023-02-18T22:47:51.076Z,4.70
2023-02-18T22:52:56.360Z,5.27
2023-02-18T22:58:01.751Z,4.47
2023-02-18T23:03:09.761Z,4.97
2023-02-18T23:08:15.118Z,4.88
2023-02-18T23:13:20.394Z,5.00
2023-02-18T23:18:28.914Z,4.73
2023-02-18T23:23:34.163Z,4.82
2023-02-18T23:28:50.219Z,5.30
2023-02-18T23:34:00.423Z,5.00
2023-02-18T23:39:08.555Z,5.38
2023-02-18T23:44:16.192Z,5.53
2023-02-18T23:49:26.269Z,5.97
2023-02-18T23:54:31.614Z,6.80
2023-02-18T23:59:36.850Z,6.28
